Time;durP1;ratioP1;P1;durP2;ratioP2;P2;SDS_P1;SDS_P2;PMS_P1;PMS_P2;Temp;Humidity;BMP_temperature;BMP_pressure;BME280_temperature;BME280_humidity;BME280_pressure;Samples;Min_cycle;Max_cycle;Signal;HPM_P1;HPM_P2
2023/05/22 00:00:06;;;;;;;22.45;11.57;;;19.80;91.20;;;;;;5113248;28;20441;-68
2023/05/22 00:02:41;;;;;;;14.80;10.60;;;19.80;91.30;;;;;;5113740;28;20030;-68
2023/05/22 00:05:09;;;;;;;14.68;10.73;;;19.70;91.70;;;;;;5113017;28;20074;-68
2023/05/22 00:07:34;;;;;;;14.82;10.55;;;19.70;91.90;;;;;;5113605;28;20108;-68
2023/05/22 00:10:00;;;;;;;16.20;10.65;;;19.60;92.10;;;;;;5113120;28;20028;-68
2023/05/22 00:12:25;;;;;;;18.98;10.40;;;19.60;92.20;;;;;;5113568;28;20045;-68
2023/05/22 00:14:51;;;;;;;13.45;10.20;;;19.50;92.50;;;;;;5112947;28;20080;-68
2023/05/22 00:17:17;;;;;;;13.48;9.75;;;19.50;92.80;;;;;;5113429;28;20027;-68
2023/05/22 00:19:43;;;;;;;16.55;9.68;;;19.40;92.70;;;;;;5112867;28;20027;-68
2023/05/22 00:22:09;;;;;;;13.15;9.15;;;19.40;92.40;;;;;;5111723;28;20032;-68
2023/05/22 00:24:35;;;;;;;11.98;9.30;;;19.40;92.40;;;;;;5113368;28;20464;-68
2023/05/22 00:27:00;;;;;;;12.65;9.75;;;19.40;92.70;;;;;;5112915;28;20122;-68
2023/05/22 00:29:26;;;;;;;12.60;8.68;;;19.30;92.80;;;;;;5113667;28;20041;-68
2023/05/22 00:31:51;;;;;;;13.98;8.70;;;19.30;92.80;;;;;;5112944;28;20422;-68
2023/05/22 00:34:18;;;;;;;11.32;9.10;;;19.30;92.80;;;;;;5113161;28;20426;-67
2023/05/22 00:36:43;;;;;;;11.35;9.63;;;19.20;92.70;;;;;;5113254;28;20399;-68
2023/05/22 00:39:09;;;;;;;10.38;8.55;;;19.20;92.70;;;;;;5112530;28;20114;-68
2023/05/22 00:41:34;;;;;;;11.02;9.60;;;19.20;92.80;;;;;;5113179;28;20023;-68
2023/05/22 00:44:01;;;;;;;13.07;9.60;;;19.20;93.30;;;;;;5112739;28;20051;-68
2023/05/22 00:46:27;;;;;;;17.25;9.90;;;19.20;93.30;;;;;;5112674;28;20483;-69
2023/05/22 00:48:53;;;;;;;14.15;9.57;;;19.10;93.50;;;;;;5112671;28;20079;-68
2023/05/22 00:51:23;;;;;;;14.30;9.55;;;19.10;93.60;;;;;;5112943;28;20080;-68
2023/05/22 00:53:50;;;;;;;19.10;11.13;;;19.10;93.80;;;;;;5113049;28;20109;-68
2023/05/22 00:56:16;;;;;;;14.43;9.88;;;19.10;94.00;;;;;;5113082;28;20480;-68
2023/05/22 00:58:42;;;;;;;13.65;10.23;;;19.00;94.00;;;;;;5113030;28;20102;-68
2023/05/22 01:01:10;;;;;;;15.32;10.65;;;19.00;94.60;;;;;;5112546;28;20110;-69
2023/05/22 01:03:41;;;;;;;15.63;10.77;;;19.00;94.80;;;;;;5113085;28;20024;-68
2023/05/22 01:06:06;;;;;;;17.05;10.25;;;18.90;94.60;;;;;;5111339;28;20384;-68
2023/05/22 01:08:32;;;;;;;14.15;9.55;;;18.90;94.60;;;;;;5111500;28;20027;-68
2023/05/22 01:11:07;;;;;;;10.63;9.52;;;18.90;94.80;;;;;;5112472;28;20031;-68
2023/05/22 01:13:45;;;;;;;14.48;9.32;;;18.90;95.00;;;;;;5112971;28;20028;-68
2023/05/22 01:16:33;;;;;;;12.55;9.52;;;18.90;95.10;;;;;;5112523;28;20035;-68
2023/05/22 01:19:22;;;;;;;13.98;9.63;;;18.80;95.10;;;;;;5115796;28;20023;-68
2023/05/22 01:22:09;;;;;;;12.32;8.95;;;18.80;95.30;;;;;;5116752;28;20062;-68
2023/05/22 01:25:17;;;;;;;10.63;9.00;;;18.70;95.70;;;;;;5116899;28;20027;-69
2023/05/22 01:28:01;;;;;;;12.00;9.32;;;18.70;95.60;;;;;;5087384;28;20488;-69
2023/05/22 01:30:47;;;;;;;12.73;8.82;;;18.70;95.60;;;;;;5116677;28;20114;-68
2023/05/22 01:33:16;;;;;;;12.05;9.02;;;18.70;95.80;;;;;;5116069;28;20036;-68
2023/05/22 01:35:50;;;;;;;10.63;8.88;;;18.70;96.00;;;;;;5115989;28;20410;-68
2023/05/22 01:38:16;;;;;;;13.93;9.30;;;18.70;96.10;;;;;;5116033;28;20448;-67
2023/05/22 01:40:43;;;;;;;9.63;8.50;;;18.60;96.30;;;;;;5116042;28;20028;-68
2023/05/22 01:43:09;;;;;;;13.55;9.45;;;18.60;96.30;;;;;;5115859;28;20464;-68
2023/05/22 01:45:35;;;;;;;12.75;9.57;;;18.60;96.20;;;;;;5116451;28;20047;-68
2023/05/22 01:48:01;;;;;;;11.45;9.02;;;18.60;96.20;;;;;;5115845;28;20076;-68
2023/05/22 01:50:27;;;;;;;12.63;9.70;;;18.60;96.60;;;;;;5116084;28;20027;-68
2023/05/22 01:53:18;;;;;;;22.70;10.27;;;18.50;96.70;;;;;;5116046;28;20106;-66
2023/05/22 01:56:11;;;;;;;20.92;10.75;;;18.50;97.00;;;;;;5116140;28;20051;-68
2023/05/22 01:58:54;;;;;;;19.02;10.32;;;18.50;97.00;;;;;;5104818;28;20036;-68
2023/05/22 02:01:25;;;;;;;18.70;10.50;;;18.50;96.80;;;;;;5115814;28;20028;-68
2023/05/22 02:03:55;;;;;;;21.90;10.63;;;18.40;97.10;;;;;;5116100;28;20059;-68
2023/05/22 02:06:24;;;;;;;22.45;11.38;;;18.40;97.40;;;;;;5115895;28;20023;-68
2023/05/22 02:08:51;;;;;;;16.77;11.10;;;18.40;97.50;;;;;;5115820;28;20016;-68
2023/05/22 02:11:20;;;;;;;17.17;10.88;;;18.30;98.00;;;;;;5115146;28;20102;-68
2023/05/22 02:13:47;;;;;;;23.77;10.75;;;18.30;98.00;;;;;;5115738;28;20015;-67
2023/05/22 02:16:12;;;;;;;19.80;11.07;;;18.30;98.20;;;;;;5115309;27;20031;-67
2023/05/22 02:18:40;;;;;;;27.20;11.48;;;18.30;98.10;;;;;;5115831;28;20072;-67
2023/05/22 02:21:07;;;;;;;17.13;10.88;;;18.20;98.40;;;;;;5115258;28;20075;-67
2023/05/22 02:23:33;;;;;;;20.20;10.95;;;18.20;99.10;;;;;;5115569;28;20027;-67
2023/05/22 02:25:59;;;;;;;18.92;10.35;;;18.10;99.30;;;;;;5115172;28;20035;-67
2023/05/22 02:28:24;;;;;;;16.13;11.07;;;18.10;99.50;;;;;;5115003;28;20015;-67
2023/05/22 02:30:50;;;;;;;20.48;11.60;;;18.10;99.60;;;;;;5115114;28;20027;-67
2023/05/22 02:33:18;;;;;;;15.20;10.75;;;18.00;99.70;;;;;;5114995;28;20034;-67
2023/05/22 02:35:45;;;;;;;15.52;10.45;;;18.00;99.60;;;;;;5115213;28;20027;-67
2023/05/22 02:38:11;;;;;;;17.00;11.43;;;18.00;99.90;;;;;;5114823;28;20173;-67
2023/05/22 02:40:37;;;;;;;18.00;10.07;;;18.00;99.90;;;;;;5115340;28;20023;-67
2023/05/22 02:43:02;;;;;;;10.98;9.80;;;18.00;99.90;;;;;;5114402;28;20387;-68
2023/05/22 02:45:28;;;;;;;18.58;11.07;;;17.90;99.90;;;;;;5113581;28;20051;-68
2023/05/22 02:47:54;;;;;;;13.73;10.38;;;17.90;99.90;;;;;;5115108;28;20038;-68
2023/05/22 02:50:20;;;;;;;18.42;10.52;;;17.90;99.90;;;;;;5114641;28;20020;-68
2023/05/22 02:52:45;;;;;;;14.05;10.05;;;17.80;99.90;;;;;;5114985;28;20039;-67
2023/05/22 02:55:11;;;;;;;12.00;10.15;;;17.80;99.90;;;;;;5114165;28;20032;-68
2023/05/22 02:57:36;;;;;;;14.13;9.80;;;17.70;99.90;;;;;;5114612;28;20406;-68
2023/05/22 03:00:05;;;;;;;12.50;10.88;;;17.70;99.90;;;;;;5114436;28;20456;-67
2023/05/22 03:02:31;;;;;;;15.55;9.90;;;17.70;99.90;;;;;;5114698;28;20106;-67
2023/05/22 03:04:58;;;;;;;13.23;10.48;;;17.70;99.90;;;;;;5114712;28;20110;-67
2023/05/22 03:07:25;;;;;;;12.93;9.45;;;17.60;99.90;;;;;;5114237;28;20027;-67
2023/05/22 03:09:51;;;;;;;11.55;10.00;;;17.60;99.90;;;;;;5114181;28;20020;-67
2023/05/22 03:12:17;;;;;;;14.10;10.18;;;17.60;99.90;;;;;;5113950;28;20499;-67
2023/05/22 03:14:42;;;;;;;11.35;9.98;;;17.60;99.90;;;;;;5114090;28;20110;-67
2023/05/22 03:17:08;;;;;;;11.00;9.82;;;17.60;99.90;;;;;;5114060;28;20032;-68
2023/05/22 03:19:34;;;;;;;12.55;9.63;;;17.60;99.90;;;;;;5114541;28;20023;-67
2023/05/22 03:21:59;;;;;;;11.75;9.40;;;17.50;99.90;;;;;;5113979;28;20038;-67
2023/05/22 03:24:26;;;;;;;13.02;9.13;;;17.50;99.90;;;;;;5114157;28;20035;-67
2023/05/22 03:26:51;;;;;;;15.02;9.82;;;17.50;99.90;;;;;;5114380;28;20031;-67
2023/05/22 03:29:17;;;;;;;12.38;9.38;;;17.50;99.90;;;;;;5113857;28;20027;-67
2023/05/22 03:31:43;;;;;;;12.60;9.60;;;17.50;99.90;;;;;;5113155;28;20031;-67
2023/05/22 03:34:08;;;;;;;16.45;10.50;;;17.50;99.90;;;;;;5113453;28;20023;-67
2023/05/22 03:36:34;;;;;;;12.05;9.80;;;17.50;99.90;;;;;;5114214;28;20119;-67
2023/05/22 03:39:03;;;;;;;11.80;9.25;;;17.50;99.90;;;;;;5114033;28;20433;-67
2023/05/22 03:41:29;;;;;;;10.57;9.48;;;17.50;99.90;;;;;;5113744;28;20374;-67
2023/05/22 03:43:56;;;;;;;12.15;9.98;;;17.50;99.90;;;;;;5113503;28;20027;-67
2023/05/22 03:46:22;;;;;;;16.88;10.02;;;17.50;99.90;;;;;;5113043;28;20044;-67
2023/05/22 03:48:47;;;;;;;14.20;9.50;;;17.50;99.90;;;;;;5113878;28;20084;-67
2023/05/22 03:51:13;;;;;;;10.15;8.65;;;17.50;99.90;;;;;;5113224;28;20035;-68
2023/05/22 03:53:39;;;;;;;14.52;8.80;;;17.50;99.90;;;;;;5113752;28;20038;-68
2023/05/22 03:56:04;;;;;;;13.35;8.80;;;17.60;99.90;;;;;;5113382;27;20028;-69
2023/05/22 03:58:30;;;;;;;12.00;8.98;;;17.60;99.90;;;;;;5113494;28;20058;-68
2023/05/22 04:00:59;;;;;;;12.52;10.10;;;17.60;99.90;;;;;;5113458;28;20080;-68
2023/05/22 04:03:25;;;;;;;12.00;9.70;;;17.60;99.90;;;;;;5113198;28;20035;-68
2023/05/22 04:05:51;;;;;;;11.77;9.57;;;17.60;99.90;;;;;;5113378;28;20059;-68
2023/05/22 04:08:17;;;;;;;15.57;10.23;;;17.60;99.90;;;;;;5113189;28;20119;-69
2023/05/22 04:10:45;;;;;;;11.35;9.30;;;17.70;99.90;;;;;;5113535;28;20030;-68
2023/05/22 04:13:14;;;;;;;11.07;8.45;;;17.70;99.90;;;;;;5113049;28;20103;-68
2023/05/22 04:15:46;;;;;;;14.07;9.80;;;17.80;99.90;;;;;;5113432;28;20434;-69
2023/05/22 04:18:12;;;;;;;13.73;9.70;;;17.80;99.90;;;;;;5113132;28;20020;-67
2023/05/22 04:20:38;;;;;;;12.20;9.32;;;17.90;99.90;;;;;;5113442;28;20056;-67
2023/05/22 04:23:03;;;;;;;9.63;8.63;;;18.00;99.90;;;;;;5113341;28;20116;-68
2023/05/22 04:25:30;;;;;;;10.55;8.50;;;18.00;99.90;;;;;;5112923;28;20024;-68
2023/05/22 04:27:56;;;;;;;12.93;8.27;;;18.10;99.90;;;;;;5113005;28;20027;-68
2023/05/22 04:30:24;;;;;;;10.65;8.65;;;18.10;99.90;;;;;;5112163;28;20030;-68
2023/05/22 04:32:49;;;;;;;11.95;8.35;;;18.20;99.90;;;;;;5113130;28;20027;-68
2023/05/22 04:35:17;;;;;;;12.13;9.52;;;18.40;99.90;;;;;;5112711;28;20361;-68
2023/05/22 04:37:44;;;;;;;11.13;9.10;;;18.50;99.90;;;;;;5113543;28;20054;-68
2023/05/22 04:40:11;;;;;;;10.55;8.05;;;18.60;99.90;;;;;;5112704;28;20088;-69
2023/05/22 04:42:37;;;;;;;10.38;7.43;;;18.80;99.90;;;;;;5113182;28;20024;-68
2023/05/22 04:45:04;;;;;;;14.93;8.85;;;18.90;99.90;;;;;;5112752;28;20044;-68
2023/05/22 04:47:30;;;;;;;10.02;7.55;;;19.00;99.70;;;;;;5112687;28;20027;-68
2023/05/22 04:49:59;;;;;;;12.07;7.78;;;19.20;99.00;;;;;;5111763;28;20058;-68
2023/05/22 04:52:25;;;;;;;9.27;7.68;;;19.30;98.50;;;;;;5113530;28;20024;-68
2023/05/22 04:54:51;;;;;;;9.02;7.65;;;19.50;98.00;;;;;;5117380;28;20024;-68
2023/05/22 04:57:18;;;;;;;9.13;6.88;;;19.70;97.90;;;;;;5116758;28;20050;-68
2023/05/22 04:59:44;;;;;;;11.63;7.38;;;19.90;96.40;;;;;;5117115;28;20068;-68
2023/05/22 05:02:10;;;;;;;10.98;7.70;;;20.10;95.80;;;;;;5116791;28;20023;-69
2023/05/22 05:04:36;;;;;;;9.48;8.07;;;20.40;95.00;;;;;;5117082;28;20410;-68
2023/05/22 05:07:02;;;;;;;11.30;8.00;;;20.60;94.30;;;;;;5116979;28;20028;-68
2023/05/22 05:09:28;;;;;;;10.35;7.55;;;20.90;93.30;;;;;;5116117;28;20035;-67
2023/05/22 05:11:54;;;;;;;9.85;8.05;;;21.30;91.90;;;;;;5116795;28;20023;-66
2023/05/22 05:14:20;;;;;;;9.20;7.15;;;21.60;91.00;;;;;;5116413;28;20038;-68
2023/05/22 05:16:46;;;;;;;11.95;7.28;;;22.10;90.10;;;;;;5115514;28;20457;-67
2023/05/22 05:19:12;;;;;;;12.85;7.57;;;22.50;87.80;;;;;;5116167;28;20035;-67
2023/05/22 05:21:38;;;;;;;12.88;7.13;;;23.00;85.10;;;;;;5116686;28;20020;-67
2023/05/22 05:24:05;;;;;;;9.15;7.10;;;23.40;82.50;;;;;;5116681;28;20102;-67
2023/05/22 05:26:31;;;;;;;11.27;7.28;;;23.60;80.10;;;;;;5116129;28;20031;-67
2023/05/22 05:28:56;;;;;;;9.82;7.38;;;24.00;78.20;;;;;;5116798;28;20110;-67
2023/05/22 05:31:22;;;;;;;8.70;7.13;;;24.40;76.00;;;;;;5116522;28;20019;-67
2023/05/22 05:33:48;;;;;;;11.77;7.20;;;24.80;75.00;;;;;;5117892;28;20429;-67
2023/05/22 05:36:15;;;;;;;9.48;7.38;;;25.20;73.80;;;;;;5117385;28;20529;-67
2023/05/22 05:38:41;;;;;;;9.50;7.18;;;25.60;70.90;;;;;;5118398;28;20023;-67
2023/05/22 05:41:06;;;;;;;10.38;7.13;;;25.90;70.30;;;;;;5118361;28;20035;-67
2023/05/22 05:43:32;;;;;;;9.52;7.57;;;26.20;68.00;;;;;;5117695;28;20027;-67
2023/05/22 05:45:57;;;;;;;13.32;7.78;;;26.50;66.60;;;;;;5116430;28;20045;-68
2023/05/22 05:48:23;;;;;;;11.25;7.50;;;26.90;65.90;;;;;;5114835;28;20028;-67
2023/05/22 05:50:49;;;;;;;11.18;7.57;;;27.40;64.50;;;;;;5113331;28;20023;-68
2023/05/22 05:53:15;;;;;;;14.82;7.35;;;27.80;63.10;;;;;;5114715;28;20035;-67
2023/05/22 05:55:40;;;;;;;15.15;7.32;;;28.30;61.00;;;;;;5114539;28;20023;-68
2023/05/22 05:58:06;;;;;;;9.50;7.90;;;28.70;60.30;;;;;;5114782;28;20034;-68
2023/05/22 06:00:32;;;;;;;8.05;6.50;;;29.20;59.60;;;;;;5114322;28;20384;-68
2023/05/22 06:02:58;;;;;;;9.40;7.25;;;29.60;57.00;;;;;;5114055;28;20034;-68
2023/05/22 06:05:25;;;;;;;9.85;6.30;;;29.90;56.40;;;;;;5114323;28;20055;-68
2023/05/22 06:07:51;;;;;;;11.02;6.85;;;30.30;55.40;;;;;;5114709;28;20368;-68
2023/05/22 06:10:16;;;;;;;10.43;6.25;;;30.60;53.80;;;;;;5112954;28;20026;-68
2023/05/22 06:12:42;;;;;;;9.90;6.00;;;31.00;52.70;;;;;;5114226;28;20483;-67
2023/05/22 06:15:08;;;;;;;11.82;6.43;;;31.40;52.20;;;;;;5114490;28;20034;-68
2023/05/22 06:17:35;;;;;;;14.02;5.82;;;31.70;50.20;;;;;;5113856;28;20042;-68
2023/05/22 06:20:03;;;;;;;9.65;5.88;;;32.10;48.50;;;;;;5114196;28;20039;-69
2023/05/22 06:22:29;;;;;;;7.85;5.35;;;32.40;48.50;;;;;;5113909;28;20036;-69
2023/05/22 06:24:55;;;;;;;8.55;5.38;;;32.70;47.40;;;;;;5114217;28;20031;-68
2023/05/22 06:27:21;;;;;;;8.98;6.00;;;32.70;47.10;;;;;;5113383;28;20475;-70
2023/05/22 06:29:50;;;;;;;6.55;4.80;;;32.90;45.80;;;;;;5114634;28;20027;-68
2023/05/22 06:32:16;;;;;;;6.45;5.65;;;33.20;45.10;;;;;;5112481;28;20077;-69
2023/05/22 06:34:44;;;;;;;6.35;4.72;;;33.10;44.50;;;;;;5114085;28;20143;-68
2023/05/22 06:37:10;;;;;;;6.10;4.45;;;33.50;45.10;;;;;;5114124;28;20036;-68
2023/05/22 06:39:36;;;;;;;9.23;4.50;;;33.70;43.90;;;;;;5113615;28;20027;-68
2023/05/22 06:42:02;;;;;;;8.32;4.00;;;33.80;42.90;;;;;;5112681;28;20051;-68
2023/05/22 06:44:27;;;;;;;6.03;5.10;;;33.50;42.30;;;;;;5071363;28;1152285;-68
2023/05/22 06:46:53;;;;;;;7.47;5.03;;;33.40;42.80;;;;;;5113971;28;20028;-68
2023/05/22 06:49:19;;;;;;;12.35;5.28;;;33.50;42.60;;;;;;5114535;28;20035;-69
2023/05/22 06:51:45;;;;;;;7.22;5.05;;;33.90;42.50;;;;;;5114778;28;20051;-68
2023/05/22 06:54:12;;;;;;;8.50;5.72;;;33.90;42.60;;;;;;5114301;28;20468;-68
2023/05/22 06:56:41;;;;;;;6.60;5.28;;;33.90;42.50;;;;;;5114197;28;20026;-68
2023/05/22 06:59:13;;;;;;;6.43;5.53;;;34.30;41.80;;;;;;5113445;28;20031;-67
2023/05/22 07:01:38;;;;;;;6.15;5.45;;;34.20;42.50;;;;;;5114253;28;20034;-67
2023/05/22 07:04:04;;;;;;;7.30;5.47;;;34.40;42.00;;;;;;5114196;28;20368;-67
2023/05/22 07:06:37;;;;;;;9.60;6.03;;;34.60;41.70;;;;;;5114056;28;20106;-67
2023/05/22 07:09:04;;;;;;;11.93;6.43;;;34.60;41.60;;;;;;5114467;28;20038;-69
2023/05/22 07:11:30;;;;;;;6.95;6.00;;;34.70;41.30;;;;;;5114093;28;20023;-67
2023/05/22 07:13:56;;;;;;;6.65;5.60;;;34.90;41.00;;;;;;5114216;28;20031;-68
2023/05/22 07:16:22;;;;;;;9.27;6.57;;;35.00;41.20;;;;;;5113069;28;20051;-69
2023/05/22 07:18:48;;;;;;;10.52;6.10;;;35.10;40.60;;;;;;5114719;28;20246;-68
2023/05/22 07:21:14;;;;;;;6.38;5.13;;;35.40;40.50;;;;;;5114250;28;20027;-68
2023/05/22 07:23:39;;;;;;;10.77;5.72;;;35.70;40.50;;;;;;5113791;28;20023;-68
2023/05/22 07:26:06;;;;;;;9.07;6.07;;;36.00;39.80;;;;;;5113955;28;20058;-67
2023/05/22 07:28:32;;;;;;;7.05;5.57;;;36.20;39.90;;;;;;5113807;28;20161;-68
2023/05/22 07:30:57;;;;;;;6.50;5.57;;;36.20;40.20;;;;;;5114558;28;20107;-67
2023/05/22 07:33:24;;;;;;;6.57;5.57;;;36.00;40.00;;;;;;5113784;28;20031;-68
2023/05/22 07:35:50;;;;;;;8.80;5.35;;;36.20;38.90;;;;;;5114057;28;20050;-68
2023/05/22 07:38:16;;;;;;;9.02;5.95;;;36.30;39.30;;;;;;5114149;28;20468;-68
2023/05/22 07:40:42;;;;;;;8.05;6.10;;;36.00;39.40;;;;;;5113037;28;20047;-67
2023/05/22 07:43:07;;;;;;;7.90;5.88;;;35.90;39.60;;;;;;5113776;28;20529;-66
2023/05/22 07:45:33;;;;;;;9.50;5.93;;;35.40;41.40;;;;;;5113158;28;20450;-67
2023/05/22 07:48:00;;;;;;;10.48;6.22;;;35.60;40.10;;;;;;5113576;28;20028;-67
2023/05/22 07:50:29;;;;;;;8.35;6.22;;;35.30;39.30;;;;;;5113388;28;20038;-68
2023/05/22 07:52:54;;;;;;;11.25;6.18;;;35.30;39.70;;;;;;5113915;28;20030;-68
2023/05/22 07:55:20;;;;;;;10.07;5.82;;;34.90;39.40;;;;;;5113452;28;20122;-76
2023/05/22 07:57:46;;;;;;;10.02;5.97;;;35.20;40.70;;;;;;5113331;28;20466;-68
2023/05/22 08:00:13;;;;;;;9.85;6.00;;;35.40;40.00;;;;;;5113639;28;20106;-68
2023/05/22 08:02:41;;;;;;;7.70;6.45;;;35.30;41.50;;;;;;5113062;28;20062;-68
2023/05/22 08:05:08;;;;;;;6.70;5.72;;;35.30;39.70;;;;;;5113831;28;20054;-67
2023/05/22 08:07:33;;;;;;;9.77;6.63;;;35.10;40.50;;;;;;5113199;28;20076;-67
2023/05/22 08:10:02;;;;;;;7.72;5.80;;;35.30;40.90;;;;;;5113186;28;20110;-67
2023/05/22 08:12:28;;;;;;;8.55;6.07;;;35.40;40.80;;;;;;5112948;28;20019;-67
2023/05/22 08:14:53;;;;;;;8.93;6.53;;;35.20;41.20;;;;;;5113358;28;20032;-68
2023/05/22 08:17:19;;;;;;;10.20;6.55;;;35.00;40.90;;;;;;5112143;28;20031;-67
2023/05/22 08:19:45;;;;;;;7.63;5.63;;;34.80;41.60;;;;;;5112787;28;20055;-67
2023/05/22 08:22:10;;;;;;;8.30;6.10;;;34.60;41.60;;;;;;5113223;28;20479;-67
2023/05/22 08:24:36;;;;;;;7.70;5.90;;;34.10;41.80;;;;;;5112785;28;20495;-67
2023/05/22 08:27:01;;;;;;;7.70;5.53;;;34.10;42.20;;;;;;5112985;28;20020;-67
2023/05/22 08:29:27;;;;;;;6.15;5.00;;;34.20;42.90;;;;;;5112550;28;20027;-67
2023/05/22 08:31:55;;;;;;;7.18;5.45;;;34.00;42.20;;;;;;5112953;28;20364;-67
2023/05/22 08:34:21;;;;;;;8.65;5.00;;;33.60;41.40;;;;;;5112786;28;20024;-66
2023/05/22 08:36:48;;;;;;;11.05;5.10;;;33.20;42.50;;;;;;5111675;28;20384;-68
2023/05/22 08:39:14;;;;;;;7.20;4.57;;;32.90;43.20;;;;;;5112509;28;20457;-67
2023/05/22 08:41:42;;;;;;;8.82;4.80;;;32.50;43.60;;;;;;5112699;28;20111;-69
2023/05/22 08:44:09;;;;;;;8.27;5.38;;;32.30;43.40;;;;;;5113321;28;20024;-68
2023/05/22 08:46:40;;;;;;;8.98;5.25;;;32.00;43.90;;;;;;5112678;28;20043;-67
2023/05/22 08:49:07;;;;;;;;;;;31.70;44.30;;;;;;5113278;28;20027;-66
2023/05/22 08:51:37;;;;;;;7.05;5.40;;;31.40;45.40;;;;;;5112332;28;19911;-67
2023/05/22 08:54:08;;;;;;;7.13;5.55;;;31.20;45.40;;;;;;5111566;28;20031;-66
2023/05/22 08:56:33;;;;;;;;;;;31.10;46.90;;;;;;5112799;28;20585;-67
2023/05/22 08:59:00;;;;;;;8.13;5.90;;;30.90;46.60;;;;;;5112667;28;19999;-67
2023/05/22 09:01:28;;;;;;;7.15;5.50;;;30.70;46.50;;;;;;5112394;28;20028;-68
2023/05/22 09:03:58;;;;;;;9.52;5.25;;;30.50;47.90;;;;;;5112755;28;20410;-67
2023/05/22 09:06:23;;;;;;;7.63;5.32;;;30.30;47.30;;;;;;5112464;28;20396;-67
2023/05/22 09:08:50;;;;;;;8.60;5.00;;;30.10;47.80;;;;;;5112183;28;20032;-67
2023/05/22 09:11:16;;;;;;;5.20;4.57;;;30.00;48.40;;;;;;5112232;28;20043;-67
2023/05/22 09:13:43;;;;;;;7.68;5.13;;;29.80;48.00;;;;;;5112273;28;20019;-68
2023/05/22 09:16:11;;;;;;;7.82;5.30;;;29.70;48.90;;;;;;5112365;28;20520;-68
2023/05/22 09:18:38;;;;;;;6.68;4.90;;;29.60;49.30;;;;;;5111926;28;20039;-68
2023/05/22 09:21:08;;;;;;;7.30;5.47;;;29.60;49.80;;;;;;5112598;28;20024;-68
2023/05/22 09:23:34;;;;;;;10.07;5.18;;;29.40;49.70;;;;;;5112330;28;20019;-67
2023/05/22 09:26:01;;;;;;;6.30;5.50;;;29.30;51.60;;;;;;5112792;28;20548;-68
2023/05/22 09:28:35;;;;;;;7.60;5.00;;;29.20;51.90;;;;;;5112355;28;20101;-75
2023/05/22 09:31:02;;;;;;;8.57;5.10;;;29.10;50.30;;;;;;5112546;28;20032;-68
2023/05/22 09:33:28;;;;;;;10.55;5.70;;;29.10;51.20;;;;;;5112255;28;20032;-75
2023/05/22 09:35:54;;;;;;;10.93;6.05;;;29.10;51.40;;;;;;5112363;28;20036;-67
2023/05/22 09:38:27;;;;;;;8.68;5.30;;;29.20;51.20;;;;;;5112937;28;20031;-67
2023/05/22 09:40:53;;;;;;;7.60;5.47;;;29.00;50.70;;;;;;5116300;28;20376;-68
2023/05/22 09:43:21;;;;;;;10.82;5.20;;;29.00;51.00;;;;;;5116116;28;20026;-67
2023/05/22 09:45:47;;;;;;;8.88;5.28;;;29.00;51.70;;;;;;5115287;28;20485;-68
2023/05/22 09:48:16;;;;;;;6.10;5.40;;;29.00;52.00;;;;;;5115923;28;20016;-68
2023/05/22 09:50:46;;;;;;;6.15;5.35;;;29.00;52.20;;;;;;5114634;28;20031;-68
2023/05/22 09:53:15;;;;;;;8.55;6.07;;;29.00;52.80;;;;;;5115890;28;20038;-68
2023/05/22 09:55:41;;;;;;;9.98;5.85;;;28.90;52.70;;;;;;5114958;28;20563;-67
2023/05/22 09:58:10;;;;;;;12.18;6.18;;;28.90;54.10;;;;;;5115722;28;20118;-68
2023/05/22 10:00:36;;;;;;;12.00;5.95;;;28.80;52.50;;;;;;5115402;28;20027;-68
2023/05/22 10:03:11;;;;;;;7.97;5.65;;;28.60;52.30;;;;;;5115522;28;20468;-68
2023/05/22 10:05:42;;;;;;;7.18;5.72;;;28.50;52.00;;;;;;5114967;28;20031;-69
2023/05/22 10:08:13;;;;;;;;;;;28.40;50.60;;;;;;5115502;28;20353;-69
2023/05/22 10:10:41;;;;;;;8.00;4.88;;;28.40;51.60;;;;;;5115057;28;19986;-68
2023/05/22 10:13:07;;;;;;;5.78;4.65;;;28.50;51.40;;;;;;5115150;28;20464;-67
2023/05/22 10:15:34;;;;;;;9.52;5.28;;;28.60;53.10;;;;;;5114930;28;20035;-69
2023/05/22 10:18:00;;;;;;;8.60;5.47;;;28.60;53.10;;;;;;5115561;28;20447;-68
2023/05/22 10:20:27;;;;;;;7.25;5.10;;;28.70;53.20;;;;;;5115225;28;20035;-68
2023/05/22 10:22:54;;;;;;;7.07;5.55;;;28.70;53.70;;;;;;5114774;28;20027;-67
2023/05/22 10:25:22;;;;;;;6.95;5.32;;;28.60;52.50;;;;;;5115236;28;20375;-68
2023/05/22 10:27:51;;;;;;;10.73;5.30;;;28.60;52.60;;;;;;5114740;28;20035;-68
2023/05/22 10:30:41;;;;;;;6.00;4.95;;;28.60;52.90;;;;;;5114306;28;20024;-68
2023/05/22 10:33:20;;;;;;;6.88;4.88;;;28.60;52.30;;;;;;5114805;28;20049;-67
2023/05/22 10:35:57;;;;;;;8.35;4.15;;;28.60;51.90;;;;;;5114584;28;20035;-67
2023/05/22 10:38:57;;;;;;;6.53;4.32;;;28.60;51.80;;;;;;5114760;28;20064;-67
2023/05/22 10:41:23;;;;;;;7.18;4.47;;;28.70;52.50;;;;;;5115089;28;20034;-67
2023/05/22 10:43:49;;;;;;;9.18;4.80;;;28.60;52.80;;;;;;5113963;28;20028;-68
2023/05/22 10:46:15;;;;;;;8.88;4.80;;;28.70;52.80;;;;;;5115029;28;20070;-68
2023/05/22 10:48:46;;;;;;;5.70;4.28;;;28.60;52.80;;;;;;5114507;28;20024;-68
2023/05/22 10:51:13;;;;;;;7.57;4.57;;;28.70;53.60;;;;;;5113508;28;20073;-68
2023/05/22 10:53:42;;;;;;;9.32;4.00;;;28.60;52.50;;;;;;5114486;28;20043;-68
2023/05/22 10:56:14;;;;;;;5.30;4.03;;;28.60;52.80;;;;;;5114803;28;20028;-68
2023/05/22 10:58:43;;;;;;;6.93;4.15;;;28.60;53.00;;;;;;5113148;28;20023;-68
2023/05/22 11:01:12;;;;;;;4.72;4.03;;;28.60;51.10;;;;;;5113479;28;20048;-68
2023/05/22 11:04:07;;;;;;;9.20;4.20;;;28.60;51.00;;;;;;5114232;28;20198;-67
2023/05/22 11:06:33;;;;;;;5.25;4.20;;;28.60;51.60;;;;;;5114355;28;20073;-67
2023/05/22 11:08:59;;;;;;;8.20;4.47;;;28.50;51.30;;;;;;5114433;28;20055;-68
2023/05/22 11:11:26;;;;;;;7.65;4.50;;;28.60;51.80;;;;;;5114326;28;20020;-67
2023/05/22 11:13:52;;;;;;;6.95;4.45;;;28.60;51.40;;;;;;5114070;28;20072;-68
2023/05/22 11:16:18;;;;;;;4.72;3.80;;;28.60;50.50;;;;;;5113961;28;20028;-68
2023/05/22 11:18:44;;;;;;;7.13;4.20;;;28.70;51.20;;;;;;5113814;28;20030;-68
2023/05/22 11:21:12;;;;;;;4.63;3.70;;;28.70;50.80;;;;;;5114295;28;20042;-66
2023/05/22 11:23:38;;;;;;;7.75;4.35;;;28.70;50.40;;;;;;5113680;28;20039;-68
2023/05/22 11:26:23;;;;;;;7.70;4.28;;;28.60;49.90;;;;;;5113784;28;20429;-67
2023/05/22 11:28:50;;;;;;;6.90;4.00;;;28.60;49.20;;;;;;5113672;28;20089;-67
2023/05/22 11:31:17;;;;;;;6.10;4.20;;;28.60;49.40;;;;;;5113980;28;20019;-67
2023/05/22 11:33:47;;;;;;;6.75;4.10;;;28.60;50.10;;;;;;5113544;28;20392;-67
2023/05/22 11:36:13;;;;;;;7.07;4.50;;;28.60;50.00;;;;;;5113591;28;20039;-67
2023/05/22 11:38:40;;;;;;;7.90;4.47;;;28.70;48.20;;;;;;5113318;28;20626;-67
2023/05/22 11:41:08;;;;;;;5.78;4.50;;;28.70;48.90;;;;;;5113818;28;20093;-67
2023/05/22 11:43:35;;;;;;;5.97;4.63;;;28.70;48.30;;;;;;5113809;28;20024;-67
2023/05/22 11:46:09;;;;;;;5.40;3.97;;;28.80;49.00;;;;;;5113217;28;20364;-67
2023/05/22 11:48:35;;;;;;;8.10;4.03;;;28.70;47.60;;;;;;5113360;28;20024;-68
2023/05/22 11:51:02;;;;;;;8.48;4.63;;;28.70;48.20;;;;;;5113035;28;20108;-67
2023/05/22 11:53:30;;;;;;;4.75;4.07;;;28.70;46.00;;;;;;5113579;28;20023;-67
2023/05/22 11:56:01;;;;;;;6.43;4.50;;;28.50;46.00;;;;;;5113334;28;20097;-68
2023/05/22 11:58:27;;;;;;;5.05;4.10;;;28.30;47.20;;;;;;5113572;28;20031;-68
2023/05/22 12:01:00;;;;;;;6.80;4.55;;;28.30;47.50;;;;;;5112226;28;20028;-68
2023/05/22 12:03:26;;;;;;;5.18;4.65;;;28.30;47.20;;;;;;5113617;28;20024;-68
2023/05/22 12:05:52;;;;;;;8.60;4.55;;;28.20;46.30;;;;;;5112719;28;20034;-68
2023/05/22 12:08:18;;;;;;;9.30;4.43;;;28.20;47.30;;;;;;5113046;28;20464;-68
2023/05/22 12:10:48;;;;;;;5.05;4.30;;;28.10;46.40;;;;;;5113195;28;20038;-68
2023/05/22 12:13:14;;;;;;;8.13;4.65;;;28.00;47.00;;;;;;5111908;28;20023;-66
2023/05/22 12:15:40;;;;;;;5.95;4.40;;;27.90;45.40;;;;;;5112787;28;20426;-70
2023/05/22 12:18:10;;;;;;;5.78;3.92;;;27.80;45.30;;;;;;5113756;28;20051;-68
2023/05/22 12:20:42;;;;;;;6.15;4.00;;;27.80;46.80;;;;;;5113100;28;20055;-68
2023/05/22 12:23:27;;;;;;;5.60;3.97;;;27.70;46.00;;;;;;5113343;28;20028;-67
2023/05/22 12:26:07;;;;;;;6.57;4.25;;;27.60;43.80;;;;;;5112298;28;20395;-67
2023/05/22 12:28:33;;;;;;;5.30;3.67;;;27.50;45.30;;;;;;5113204;28;20361;-67
2023/05/22 12:30:59;;;;;;;5.88;3.85;;;27.40;44.20;;;;;;5112648;28;20042;-67
2023/05/22 12:33:29;;;;;;;6.32;3.67;;;27.30;45.00;;;;;;5111446;28;20141;-68
2023/05/22 12:35:57;;;;;;;4.57;4.05;;;27.30;45.50;;;;;;5112290;28;20530;-68
2023/05/22 12:38:30;;;;;;;8.00;4.45;;;27.30;46.40;;;;;;5113006;28;20031;-68
2023/05/22 12:40:57;;;;;;;5.97;4.22;;;27.20;46.70;;;;;;5112598;28;20024;-68
2023/05/22 12:43:24;;;;;;;9.55;4.25;;;27.20;47.70;;;;;;5113081;28;20019;-67